sensor_id;sensor_type;location;lat;lon;timestamp;P1;durP1;ratioP1;P2;durP2;ratioP2
16731;SDS011;8484;50.904;9.192;2022-10-30T00:00:29;5.17;;;2.90;;
16731;SDS011;8484;50.904;9.192;2022-10-30T00:03:17;5.97;;;3.00;;
16731;SDS011;8484;50.904;9.192;2022-10-30T00:06:03;5.87;;;3.00;;
16731;SDS011;8484;50.904;9.192;2022-10-30T00:08:49;4.33;;;2.83;;
16731;SDS011;8484;50.904;9.192;2022-10-30T00:11:35;9.23;;;3.30;;
16731;SDS011;8484;50.904;9.192;2022-10-30T00:14:21;4.37;;;2.50;;
16731;SDS011;8484;50.904;9.192;2022-10-30T00:17:06;6.27;;;2.80;;
16731;SDS011;8484;50.904;9.192;2022-10-30T00:19:53;5.77;;;2.40;;
16731;SDS011;8484;50.904;9.192;2022-10-30T00:22:38;8.73;;;3.07;;
16731;SDS011;8484;50.904;9.192;2022-10-30T00:25:24;10.43;;;2.67;;
16731;SDS011;8484;50.904;9.192;2022-10-30T00:28:09;5.30;;;2.80;;
16731;SDS011;8484;50.904;9.192;2022-10-30T00:30:57;6.23;;;3.13;;
16731;SDS011;8484;50.904;9.192;2022-10-30T00:33:43;7.33;;;3.37;;
16731;SDS011;8484;50.904;9.192;2022-10-30T00:36:33;5.33;;;2.63;;
16731;SDS011;8484;50.904;9.192;2022-10-30T00:39:19;4.80;;;2.70;;
16731;SDS011;8484;50.904;9.192;2022-10-30T00:42:04;6.60;;;2.80;;
16731;SDS011;8484;50.904;9.192;2022-10-30T00:44:50;3.80;;;2.30;;
16731;SDS011;8484;50.904;9.192;2022-10-30T00:47:37;4.93;;;2.50;;
16731;SDS011;8484;50.904;9.192;2022-10-30T00:50:25;6.80;;;3.00;;
16731;SDS011;8484;50.904;9.192;2022-10-30T00:53:15;6.93;;;3.07;;
16731;SDS011;8484;50.904;9.192;2022-10-30T00:56:04;5.80;;;3.10;;
16731;SDS011;8484;50.904;9.192;2022-10-30T00:58:53;7.27;;;2.77;;
16731;SDS011;8484;50.904;9.192;2022-10-30T01:01:43;7.37;;;2.90;;
16731;SDS011;8484;50.904;9.192;2022-10-30T01:04:29;7.17;;;3.43;;
16731;SDS011;8484;50.904;9.192;2022-10-30T01:07:17;6.33;;;3.70;;
16731;SDS011;8484;50.904;9.192;2022-10-30T01:10:04;10.00;;;3.90;;
16731;SDS011;8484;50.904;9.192;2022-10-30T01:12:52;7.80;;;3.27;;
16731;SDS011;8484;50.904;9.192;2022-10-30T01:15:39;8.63;;;3.60;;
16731;SDS011;8484;50.904;9.192;2022-10-30T01:18:38;6.83;;;2.87;;
16731;SDS011;8484;50.904;9.192;2022-10-30T01:21:40;5.33;;;2.63;;
16731;SDS011;8484;50.904;9.192;2022-10-30T01:24:36;4.87;;;2.97;;
16731;SDS011;8484;50.904;9.192;2022-10-30T01:27:36;5.97;;;2.77;;
16731;SDS011;8484;50.904;9.192;2022-10-30T01:30:29;6.23;;;2.93;;
16731;SDS011;8484;50.904;9.192;2022-10-30T01:33:27;6.07;;;3.00;;
16731;SDS011;8484;50.904;9.192;2022-10-30T01:36:23;7.13;;;3.43;;
16731;SDS011;8484;50.904;9.192;2022-10-30T01:39:12;7.30;;;3.17;;
16731;SDS011;8484;50.904;9.192;2022-10-30T01:42:07;5.33;;;3.43;;
16731;SDS011;8484;50.904;9.192;2022-10-30T01:44:55;7.60;;;3.53;;
16731;SDS011;8484;50.904;9.192;2022-10-30T01:47:42;8.30;;;3.57;;
16731;SDS011;8484;50.904;9.192;2022-10-30T01:50:47;8.30;;;3.40;;
16731;SDS011;8484;50.904;9.192;2022-10-30T01:53:42;7.47;;;3.50;;
16731;SDS011;8484;50.904;9.192;2022-10-30T01:56:36;9.00;;;3.00;;
16731;SDS011;8484;50.904;9.192;2022-10-30T01:59:28;8.03;;;3.80;;
16731;SDS011;8484;50.904;9.192;2022-10-30T02:02:20;5.50;;;3.67;;
16731;SDS011;8484;50.904;9.192;2022-10-30T02:05:06;7.07;;;4.10;;
16731;SDS011;8484;50.904;9.192;2022-10-30T02:07:55;6.63;;;3.63;;
16731;SDS011;8484;50.904;9.192;2022-10-30T02:10:41;7.57;;;3.90;;
16731;SDS011;8484;50.904;9.192;2022-10-30T02:13:28;6.70;;;4.10;;
16731;SDS011;8484;50.904;9.192;2022-10-30T02:16:14;8.83;;;4.03;;
16731;SDS011;8484;50.904;9.192;2022-10-30T02:19:01;10.00;;;3.40;;
16731;SDS011;8484;50.904;9.192;2022-10-30T02:21:48;8.10;;;4.30;;
16731;SDS011;8484;50.904;9.192;2022-10-30T02:24:34;8.53;;;5.03;;
16731;SDS011;8484;50.904;9.192;2022-10-30T02:27:19;5.93;;;3.93;;
16731;SDS011;8484;50.904;9.192;2022-10-30T02:30:05;10.63;;;4.70;;
16731;SDS011;8484;50.904;9.192;2022-10-30T02:32:52;6.77;;;4.13;;
16731;SDS011;8484;50.904;9.192;2022-10-30T02:35:37;9.53;;;4.43;;
16731;SDS011;8484;50.904;9.192;2022-10-30T02:38:24;9.17;;;4.47;;
16731;SDS011;8484;50.904;9.192;2022-10-30T02:41:10;9.80;;;4.60;;
16731;SDS011;8484;50.904;9.192;2022-10-30T02:43:56;8.10;;;4.10;;
16731;SDS011;8484;50.904;9.192;2022-10-30T02:46:41;9.70;;;3.80;;
16731;SDS011;8484;50.904;9.192;2022-10-30T02:49:27;6.67;;;3.60;;
16731;SDS011;8484;50.904;9.192;2022-10-30T02:52:12;9.10;;;4.67;;
16731;SDS011;8484;50.904;9.192;2022-10-30T02:55:00;9.47;;;4.47;;
16731;SDS011;8484;50.904;9.192;2022-10-30T02:57:45;11.77;;;4.70;;
16731;SDS011;8484;50.904;9.192;2022-10-30T03:00:31;9.37;;;4.30;;
16731;SDS011;8484;50.904;9.192;2022-10-30T03:03:17;7.73;;;4.40;;
16731;SDS011;8484;50.904;9.192;2022-10-30T03:06:03;9.93;;;4.60;;
16731;SDS011;8484;50.904;9.192;2022-10-30T03:08:49;9.57;;;5.27;;
16731;SDS011;8484;50.904;9.192;2022-10-30T03:11:36;6.43;;;4.47;;
16731;SDS011;8484;50.904;9.192;2022-10-30T03:14:22;12.83;;;5.03;;
16731;SDS011;8484;50.904;9.192;2022-10-30T03:17:07;10.30;;;5.37;;
16731;SDS011;8484;50.904;9.192;2022-10-30T03:19:53;6.80;;;4.27;;
16731;SDS011;8484;50.904;9.192;2022-10-30T03:22:38;13.13;;;4.60;;
16731;SDS011;8484;50.904;9.192;2022-10-30T03:25:24;7.67;;;4.53;;
16731;SDS011;8484;50.904;9.192;2022-10-30T03:28:11;9.80;;;4.43;;
16731;SDS011;8484;50.904;9.192;2022-10-30T03:30:57;10.33;;;4.50;;
16731;SDS011;8484;50.904;9.192;2022-10-30T03:33:43;9.57;;;4.00;;
16731;SDS011;8484;50.904;9.192;2022-10-30T03:36:29;8.97;;;3.87;;
16731;SDS011;8484;50.904;9.192;2022-10-30T03:39:15;5.77;;;3.90;;
16731;SDS011;8484;50.904;9.192;2022-10-30T03:42:00;7.10;;;3.50;;
16731;SDS011;8484;50.904;9.192;2022-10-30T03:44:47;6.27;;;3.73;;
16731;SDS011;8484;50.904;9.192;2022-10-30T03:47:33;9.70;;;3.77;;
16731;SDS011;8484;50.904;9.192;2022-10-30T03:50:18;10.73;;;4.20;;
16731;SDS011;8484;50.904;9.192;2022-10-30T03:53:04;10.73;;;4.73;;
16731;SDS011;8484;50.904;9.192;2022-10-30T03:55:49;5.57;;;3.90;;
16731;SDS011;8484;50.904;9.192;2022-10-30T03:58:35;8.43;;;4.40;;
16731;SDS011;8484;50.904;9.192;2022-10-30T04:01:22;8.50;;;3.90;;
16731;SDS011;8484;50.904;9.192;2022-10-30T04:04:07;5.03;;;3.60;;
16731;SDS011;8484;50.904;9.192;2022-10-30T04:06:53;7.50;;;3.97;;
16731;SDS011;8484;50.904;9.192;2022-10-30T04:09:39;10.17;;;4.97;;
16731;SDS011;8484;50.904;9.192;2022-10-30T04:12:24;7.43;;;4.33;;
16731;SDS011;8484;50.904;9.192;2022-10-30T04:15:10;7.27;;;4.50;;
16731;SDS011;8484;50.904;9.192;2022-10-30T04:17:57;5.70;;;4.00;;
16731;SDS011;8484;50.904;9.192;2022-10-30T04:20:42;7.83;;;4.07;;
16731;SDS011;8484;50.904;9.192;2022-10-30T04:23:28;8.10;;;4.40;;
16731;SDS011;8484;50.904;9.192;2022-10-30T04:26:14;6.37;;;4.60;;
16731;SDS011;8484;50.904;9.192;2022-10-30T04:28:59;7.33;;;5.10;;
16731;SDS011;8484;50.904;9.192;2022-10-30T04:31:45;8.33;;;4.60;;
16731;SDS011;8484;50.904;9.192;2022-10-30T04:34:32;6.30;;;4.47;;
16731;SDS011;8484;50.904;9.192;2022-10-30T04:37:18;7.20;;;4.40;;
16731;SDS011;8484;50.904;9.192;2022-10-30T04:40:04;6.90;;;4.43;;
16731;SDS011;8484;50.904;9.192;2022-10-30T04:42:52;7.60;;;4.67;;
16731;SDS011;8484;50.904;9.192;2022-10-30T04:45:37;5.83;;;3.97;;
16731;SDS011;8484;50.904;9.192;2022-10-30T04:48:23;11.97;;;4.43;;
16731;SDS011;8484;50.904;9.192;2022-10-30T04:51:11;10.60;;;4.70;;
16731;SDS011;8484;50.904;9.192;2022-10-30T04:53:56;8.43;;;4.53;;
16731;SDS011;8484;50.904;9.192;2022-10-30T04:56:42;10.83;;;4.73;;
16731;SDS011;8484;50.904;9.192;2022-10-30T04:59:27;7.73;;;4.50;;
16731;SDS011;8484;50.904;9.192;2022-10-30T05:02:13;6.93;;;4.60;;
16731;SDS011;8484;50.904;9.192;2022-10-30T05:04:59;8.13;;;4.87;;
16731;SDS011;8484;50.904;9.192;2022-10-30T05:07:46;9.13;;;4.60;;
16731;SDS011;8484;50.904;9.192;2022-10-30T05:10:31;7.63;;;5.07;;
16731;SDS011;8484;50.904;9.192;2022-10-30T05:13:17;6.53;;;4.33;;
16731;SDS011;8484;50.904;9.192;2022-10-30T05:16:03;7.67;;;4.30;;
16731;SDS011;8484;50.904;9.192;2022-10-30T05:18:51;6.97;;;4.30;;
16731;SDS011;8484;50.904;9.192;2022-10-30T05:21:37;6.93;;;3.70;;
16731;SDS011;8484;50.904;9.192;2022-10-30T05:24:24;5.17;;;4.10;;
16731;SDS011;8484;50.904;9.192;2022-10-30T05:27:09;6.40;;;4.20;;
16731;SDS011;8484;50.904;9.192;2022-10-30T05:29:55;5.83;;;4.30;;
16731;SDS011;8484;50.904;9.192;2022-10-30T05:32:41;9.13;;;4.57;;
16731;SDS011;8484;50.904;9.192;2022-10-30T05:35:27;10.43;;;4.60;;
16731;SDS011;8484;50.904;9.192;2022-10-30T05:38:15;10.53;;;4.70;;
16731;SDS011;8484;50.904;9.192;2022-10-30T05:41:02;6.47;;;3.77;;
16731;SDS011;8484;50.904;9.192;2022-10-30T05:43:48;6.40;;;4.30;;
16731;SDS011;8484;50.904;9.192;2022-10-30T05:46:33;11.03;;;4.57;;
16731;SDS011;8484;50.904;9.192;2022-10-30T05:49:19;6.40;;;4.20;;
16731;SDS011;8484;50.904;9.192;2022-10-30T05:52:05;5.07;;;3.90;;
16731;SDS011;8484;50.904;9.192;2022-10-30T05:54:50;9.10;;;4.60;;
16731;SDS011;8484;50.904;9.192;2022-10-30T05:57:37;9.60;;;4.13;;
16731;SDS011;8484;50.904;9.192;2022-10-30T06:00:23;8.27;;;4.27;;
16731;SDS011;8484;50.904;9.192;2022-10-30T06:03:10;5.43;;;4.20;;
16731;SDS011;8484;50.904;9.192;2022-10-30T06:05:56;7.40;;;4.57;;
16731;SDS011;8484;50.904;9.192;2022-10-30T06:08:41;8.30;;;4.17;;
16731;SDS011;8484;50.904;9.192;2022-10-30T06:11:27;11.73;;;4.77;;
16731;SDS011;8484;50.904;9.192;2022-10-30T06:14:13;7.37;;;4.33;;
16731;SDS011;8484;50.904;9.192;2022-10-30T06:16:59;6.30;;;4.57;;
16731;SDS011;8484;50.904;9.192;2022-10-30T06:19:45;9.60;;;4.60;;
16731;SDS011;8484;50.904;9.192;2022-10-30T06:22:30;12.03;;;4.63;;
16731;SDS011;8484;50.904;9.192;2022-10-30T06:25:16;12.33;;;4.53;;
16731;SDS011;8484;50.904;9.192;2022-10-30T06:28:01;6.60;;;4.37;;
16731;SDS011;8484;50.904;9.192;2022-10-30T06:30:48;8.03;;;4.83;;
16731;SDS011;8484;50.904;9.192;2022-10-30T06:33:33;5.70;;;4.23;;
16731;SDS011;8484;50.904;9.192;2022-10-30T06:36:19;9.97;;;4.57;;
16731;SDS011;8484;50.904;9.192;2022-10-30T06:39:05;8.70;;;4.57;;
16731;SDS011;8484;50.904;9.192;2022-10-30T06:41:51;6.67;;;4.20;;
16731;SDS011;8484;50.904;9.192;2022-10-30T06:44:36;8.60;;;4.50;;
16731;SDS011;8484;50.904;9.192;2022-10-30T06:47:23;7.33;;;4.30;;
16731;SDS011;8484;50.904;9.192;2022-10-30T06:50:09;9.30;;;4.50;;
16731;SDS011;8484;50.904;9.192;2022-10-30T06:52:56;7.27;;;4.20;;
16731;SDS011;8484;50.904;9.192;2022-10-30T06:55:41;6.80;;;4.57;;
16731;SDS011;8484;50.904;9.192;2022-10-30T06:58:27;6.17;;;4.10;;
16731;SDS011;8484;50.904;9.192;2022-10-30T07:01:13;9.70;;;4.33;;
16731;SDS011;8484;50.904;9.192;2022-10-30T07:04:00;9.23;;;4.00;;
16731;SDS011;8484;50.904;9.192;2022-10-30T07:06:46;7.37;;;4.03;;
16731;SDS011;8484;50.904;9.192;2022-10-30T07:09:32;4.97;;;3.70;;
16731;SDS011;8484;50.904;9.192;2022-10-30T07:12:17;7.67;;;3.80;;
16731;SDS011;8484;50.904;9.192;2022-10-30T07:15:03;8.53;;;4.20;;
16731;SDS011;8484;50.904;9.192;2022-10-30T07:17:53;6.30;;;4.03;;
16731;SDS011;8484;50.904;9.192;2022-10-30T07:20:41;11.20;;;4.90;;
16731;SDS011;8484;50.904;9.192;2022-10-30T07:23:27;6.23;;;4.40;;
16731;SDS011;8484;50.904;9.192;2022-10-30T07:26:12;7.53;;;4.33;;
16731;SDS011;8484;50.904;9.192;2022-10-30T07:29:00;8.60;;;4.23;;
16731;SDS011;8484;50.904;9.192;2022-10-30T07:31:46;7.77;;;3.90;;
16731;SDS011;8484;50.904;9.192;2022-10-30T07:34:32;3.90;;;3.00;;
16731;SDS011;8484;50.904;9.192;2022-10-30T07:37:19;7.17;;;4.10;;
16731;SDS011;8484;50.904;9.192;2022-10-30T07:40:05;6.23;;;3.50;;
16731;SDS011;8484;50.904;9.192;2022-10-30T07:42:54;7.77;;;3.90;;
16731;SDS011;8484;50.904;9.192;2022-10-30T07:45:40;4.83;;;3.40;;
16731;SDS011;8484;50.904;9.192;2022-10-30T07:48:28;4.50;;;3.13;;
16731;SDS011;8484;50.904;9.192;2022-10-30T07:51:13;5.77;;;3.00;;
16731;SDS011;8484;50.904;9.192;2022-10-30T07:54:00;6.53;;;3.03;;
16731;SDS011;8484;50.904;9.192;2022-10-30T07:56:46;4.57;;;2.50;;
16731;SDS011;8484;50.904;9.192;2022-10-30T07:59:32;6.70;;;2.50;;
16731;SDS011;8484;50.904;9.192;2022-10-30T08:02:17;6.30;;;2.60;;
16731;SDS011;8484;50.904;9.192;2022-10-30T08:05:03;5.77;;;2.47;;
16731;SDS011;8484;50.904;9.192;2022-10-30T08:07:50;4.50;;;2.23;;
16731;SDS011;8484;50.904;9.192;2022-10-30T08:10:37;4.67;;;2.17;;
16731;SDS011;8484;50.904;9.192;2022-10-30T08:13:22;4.67;;;2.30;;
16731;SDS011;8484;50.904;9.192;2022-10-30T08:16:08;3.23;;;2.40;;
16731;SDS011;8484;50.904;9.192;2022-10-30T08:18:55;6.90;;;2.57;;
16731;SDS011;8484;50.904;9.192;2022-10-30T08:21:41;5.20;;;3.00;;
16731;SDS011;8484;50.904;9.192;2022-10-30T08:24:26;6.23;;;2.70;;
16731;SDS011;8484;50.904;9.192;2022-10-30T08:27:14;10.67;;;2.87;;
16731;SDS011;8484;50.904;9.192;2022-10-30T08:30:00;4.77;;;2.87;;
16731;SDS011;8484;50.904;9.192;2022-10-30T08:32:46;6.60;;;2.47;;
16731;SDS011;8484;50.904;9.192;2022-10-30T08:35:32;4.30;;;2.90;;
16731;SDS011;8484;50.904;9.192;2022-10-30T08:38:17;4.90;;;2.40;;
16731;SDS011;8484;50.904;9.192;2022-10-30T08:41:03;6.77;;;2.70;;
16731;SDS011;8484;50.904;9.192;2022-10-30T08:43:50;6.10;;;2.97;;
16731;SDS011;8484;50.904;9.192;2022-10-30T08:46:36;4.47;;;2.63;;
16731;SDS011;8484;50.904;9.192;2022-10-30T08:49:22;5.70;;;3.07;;
16731;SDS011;8484;50.904;9.192;2022-10-30T08:52:07;7.60;;;3.07;;
16731;SDS011;8484;50.904;9.192;2022-10-30T08:54:53;7.50;;;2.70;;
16731;SDS011;8484;50.904;9.192;2022-10-30T08:57:39;6.33;;;3.07;;
16731;SDS011;8484;50.904;9.192;2022-10-30T09:00:25;10.57;;;3.10;;
16731;SDS011;8484;50.904;9.192;2022-10-30T09:03:12;4.17;;;2.37;;
16731;SDS011;8484;50.904;9.192;2022-10-30T09:05:58;5.07;;;2.50;;
16731;SDS011;8484;50.904;9.192;2022-10-30T09:08:44;7.27;;;2.83;;
16731;SDS011;8484;50.904;9.192;2022-10-30T09:11:30;12.50;;;3.27;;
16731;SDS011;8484;50.904;9.192;2022-10-30T09:14:15;6.80;;;3.13;;
16731;SDS011;8484;50.904;9.192;2022-10-30T09:17:02;7.17;;;3.20;;
16731;SDS011;8484;50.904;9.192;2022-10-30T09:19:48;7.07;;;3.33;;
16731;SDS011;8484;50.904;9.192;2022-10-30T09:22:38;5.03;;;2.67;;
16731;SDS011;8484;50.904;9.192;2022-10-30T09:25:24;8.87;;;3.13;;
16731;SDS011;8484;50.904;9.192;2022-10-30T09:28:10;7.50;;;2.77;;
16731;SDS011;8484;50.904;9.192;2022-10-30T09:30:55;5.37;;;3.00;;
16731;SDS011;8484;50.904;9.192;2022-10-30T09:33:42;5.13;;;2.67;;
16731;SDS011;8484;50.904;9.192;2022-10-30T09:36:28;6.03;;;2.77;;
16731;SDS011;8484;50.904;9.192;2022-10-30T09:39:14;6.43;;;2.90;;
16731;SDS011;8484;50.904;9.192;2022-10-30T09:42:14;6.07;;;2.57;;
16731;SDS011;8484;50.904;9.192;2022-10-30T09:48:33;5.93;;;2.77;;
16731;SDS011;8484;50.904;9.192;2022-10-30T09:51:39;6.97;;;3.00;;
16731;SDS011;8484;50.904;9.192;2022-10-30T09:54:43;6.40;;;3.00;;
16731;SDS011;8484;50.904;9.192;2022-10-30T09:57:40;6.00;;;3.10;;
16731;SDS011;8484;50.904;9.192;2022-10-30T10:00:35;9.70;;;3.00;;
16731;SDS011;8484;50.904;9.192;2022-10-30T10:03:30;6.27;;;2.80;;
16731;SDS011;8484;50.904;9.192;2022-10-30T10:06:22;7.97;;;3.20;;
16731;SDS011;8484;50.904;9.192;2022-10-30T10:09:13;5.10;;;2.53;;
16731;SDS011;8484;50.904;9.192;2022-10-30T10:12:03;7.13;;;2.80;;
16731;SDS011;8484;50.904;9.192;2022-10-30T10:14:53;7.80;;;2.80;;
16731;SDS011;8484;50.904;9.192;2022-10-30T10:17:40;9.10;;;2.93;;
16731;SDS011;8484;50.904;9.192;2022-10-30T10:20:31;5.87;;;2.67;;
16731;SDS011;8484;50.904;9.192;2022-10-30T10:23:24;7.07;;;2.70;;
16731;SDS011;8484;50.904;9.192;2022-10-30T10:26:18;6.37;;;2.90;;
16731;SDS011;8484;50.904;9.192;2022-10-30T10:29:16;9.20;;;3.13;;
16731;SDS011;8484;50.904;9.192;2022-10-30T10:32:18;6.20;;;2.97;;
16731;SDS011;8484;50.904;9.192;2022-10-30T10:35:34;5.17;;;2.83;;
16731;SDS011;8484;50.904;9.192;2022-10-30T10:38:34;4.50;;;2.40;;
16731;SDS011;8484;50.904;9.192;2022-10-30T10:41:35;5.30;;;2.80;;
16731;SDS011;8484;50.904;9.192;2022-10-30T10:44:37;3.87;;;2.40;;
16731;SDS011;8484;50.904;9.192;2022-10-30T10:47:35;7.23;;;2.73;;
16731;SDS011;8484;50.904;9.192;2022-10-30T10:50:40;6.13;;;2.53;;
16731;SDS011;8484;50.904;9.192;2022-10-30T10:53:34;9.37;;;3.20;;
16731;SDS011;8484;50.904;9.192;2022-10-30T10:56:28;5.63;;;2.60;;
16731;SDS011;8484;50.904;9.192;2022-10-30T10:59:17;4.73;;;2.50;;
16731;SDS011;8484;50.904;9.192;2022-10-30T11:02:14;8.17;;;3.07;;
16731;SDS011;8484;50.904;9.192;2022-10-30T11:05:15;5.53;;;2.57;;
16731;SDS011;8484;50.904;9.192;2022-10-30T11:08:09;6.00;;;2.53;;
16731;SDS011;8484;50.904;9.192;2022-10-30T11:11:00;6.10;;;2.43;;
16731;SDS011;8484;50.904;9.192;2022-10-30T11:13:46;8.80;;;2.70;;
16731;SDS011;8484;50.904;9.192;2022-10-30T11:16:35;4.63;;;2.10;;
16731;SDS011;8484;50.904;9.192;2022-10-30T11:19:31;11.90;;;2.70;;
16731;SDS011;8484;50.904;9.192;2022-10-30T11:22:17;3.37;;;2.00;;
16731;SDS011;8484;50.904;9.192;2022-10-30T11:25:16;6.60;;;2.77;;
16731;SDS011;8484;50.904;9.192;2022-10-30T11:28:03;10.30;;;2.77;;
16731;SDS011;8484;50.904;9.192;2022-10-30T11:30:49;4.13;;;2.60;;
16731;SDS011;8484;50.904;9.192;2022-10-30T11:33:36;6.37;;;2.50;;
16731;SDS011;8484;50.904;9.192;2022-10-30T11:36:23;4.63;;;2.20;;
16731;SDS011;8484;50.904;9.192;2022-10-30T11:39:09;10.33;;;2.67;;
16731;SDS011;8484;50.904;9.192;2022-10-30T11:41:57;5.13;;;2.00;;
16731;SDS011;8484;50.904;9.192;2022-10-30T11:44:47;3.53;;;1.80;;
16731;SDS011;8484;50.904;9.192;2022-10-30T11:47:34;4.60;;;1.97;;
16731;SDS011;8484;50.904;9.192;2022-10-30T11:50:23;4.30;;;1.90;;
16731;SDS011;8484;50.904;9.192;2022-10-30T11:53:15;5.03;;;2.00;;
16731;SDS011;8484;50.904;9.192;2022-10-30T11:56:11;3.90;;;1.90;;
16731;SDS011;8484;50.904;9.192;2022-10-30T11:59:00;4.57;;;1.90;;
16731;SDS011;8484;50.904;9.192;2022-10-30T12:01:58;6.90;;;1.90;;
16731;SDS011;8484;50.904;9.192;2022-10-30T12:04:45;5.23;;;2.00;;
16731;SDS011;8484;50.904;9.192;2022-10-30T12:07:32;4.23;;;1.90;;
16731;SDS011;8484;50.904;9.192;2022-10-30T12:10:22;5.13;;;1.53;;
16731;SDS011;8484;50.904;9.192;2022-10-30T12:13:10;5.17;;;1.70;;
16731;SDS011;8484;50.904;9.192;2022-10-30T12:16:02;3.30;;;1.77;;
16731;SDS011;8484;50.904;9.192;2022-10-30T12:18:51;6.40;;;1.80;;
16731;SDS011;8484;50.904;9.192;2022-10-30T12:21:42;4.63;;;1.90;;
16731;SDS011;8484;50.904;9.192;2022-10-30T12:24:32;7.97;;;2.00;;
16731;SDS011;8484;50.904;9.192;2022-10-30T12:27:20;8.30;;;2.23;;
16731;SDS011;8484;50.904;9.192;2022-10-30T12:30:06;5.33;;;1.90;;
16731;SDS011;8484;50.904;9.192;2022-10-30T12:33:02;6.97;;;2.03;;
16731;SDS011;8484;50.904;9.192;2022-10-30T12:35:53;6.17;;;1.90;;
16731;SDS011;8484;50.904;9.192;2022-10-30T12:38:41;5.00;;;1.97;;
16731;SDS011;8484;50.904;9.192;2022-10-30T12:41:30;5.20;;;1.60;;
16731;SDS011;8484;50.904;9.192;2022-10-30T12:44:20;5.07;;;2.00;;
16731;SDS011;8484;50.904;9.192;2022-10-30T12:47:12;6.23;;;1.87;;
16731;SDS011;8484;50.904;9.192;2022-10-30T12:50:03;5.37;;;1.70;;
16731;SDS011;8484;50.904;9.192;2022-10-30T12:52:59;4.67;;;2.10;;
16731;SDS011;8484;50.904;9.192;2022-10-30T12:55:53;5.20;;;1.73;;
16731;SDS011;8484;50.904;9.192;2022-10-30T12:58:45;5.77;;;1.80;;
16731;SDS011;8484;50.904;9.192;2022-10-30T13:01:35;4.60;;;1.70;;
16731;SDS011;8484;50.904;9.192;2022-10-30T13:04:30;6.60;;;2.20;;
16731;SDS011;8484;50.904;9.192;2022-10-30T13:07:22;5.23;;;1.60;;
16731;SDS011;8484;50.904;9.192;2022-10-30T13:10:20;4.93;;;1.83;;
16731;SDS011;8484;50.904;9.192;2022-10-30T13:13:12;7.97;;;1.63;;
16731;SDS011;8484;50.904;9.192;2022-10-30T13:16:02;4.53;;;1.63;;
16731;SDS011;8484;50.904;9.192;2022-10-30T13:18:54;3.93;;;1.70;;
16731;SDS011;8484;50.904;9.192;2022-10-30T13:21:42;4.10;;;1.60;;
16731;SDS011;8484;50.904;9.192;2022-10-30T13:24:38;4.50;;;1.60;;
16731;SDS011;8484;50.904;9.192;2022-10-30T13:27:33;7.27;;;1.73;;
16731;SDS011;8484;50.904;9.192;2022-10-30T13:30:25;5.50;;;1.73;;
16731;SDS011;8484;50.904;9.192;2022-10-30T13:33:20;4.23;;;1.40;;
16731;SDS011;8484;50.904;9.192;2022-10-30T13:36:14;3.00;;;1.53;;
16731;SDS011;8484;50.904;9.192;2022-10-30T13:39:10;3.60;;;1.70;;
16731;SDS011;8484;50.904;9.192;2022-10-30T13:42:12;2.20;;;1.17;;
16731;SDS011;8484;50.904;9.192;2022-10-30T13:45:22;4.23;;;1.30;;
16731;SDS011;8484;50.904;9.192;2022-10-30T13:48:32;6.07;;;1.67;;
16731;SDS011;8484;50.904;9.192;2022-10-30T13:51:34;2.77;;;1.70;;
16731;SDS011;8484;50.904;9.192;2022-10-30T13:54:25;7.03;;;1.67;;
16731;SDS011;8484;50.904;9.192;2022-10-30T13:57:18;2.73;;;1.37;;
16731;SDS011;8484;50.904;9.192;2022-10-30T14:00:12;4.43;;;1.73;;
16731;SDS011;8484;50.904;9.192;2022-10-30T14:03:09;4.30;;;1.53;;
16731;SDS011;8484;50.904;9.192;2022-10-30T14:06:05;2.80;;;1.50;;
16731;SDS011;8484;50.904;9.192;2022-10-30T14:08:58;5.93;;;1.60;;
16731;SDS011;8484;50.904;9.192;2022-10-30T14:11:51;3.53;;;1.50;;
16731;SDS011;8484;50.904;9.192;2022-10-30T14:14:46;4.13;;;1.73;;
16731;SDS011;8484;50.904;9.192;2022-10-30T14:17:32;4.63;;;1.40;;
16731;SDS011;8484;50.904;9.192;2022-10-30T14:20:21;2.87;;;1.60;;
16731;SDS011;8484;50.904;9.192;2022-10-30T14:23:12;4.60;;;1.50;;
16731;SDS011;8484;50.904;9.192;2022-10-30T14:26:18;7.10;;;1.50;;
16731;SDS011;8484;50.904;9.192;2022-10-30T14:32:38;5.33;;;1.90;;
16731;SDS011;8484;50.904;9.192;2022-10-30T14:35:38;4.43;;;1.50;;
16731;SDS011;8484;50.904;9.192;2022-10-30T14:38:26;5.27;;;1.47;;
16731;SDS011;8484;50.904;9.192;2022-10-30T14:41:23;5.77;;;1.60;;
16731;SDS011;8484;50.904;9.192;2022-10-30T14:47:39;2.77;;;1.40;;
16731;SDS011;8484;50.904;9.192;2022-10-30T14:50:41;4.27;;;1.70;;
16731;SDS011;8484;50.904;9.192;2022-10-30T14:53:46;3.87;;;1.57;;
16731;SDS011;8484;50.904;9.192;2022-10-30T14:56:40;8.27;;;1.50;;
16731;SDS011;8484;50.904;9.192;2022-10-30T14:59:30;3.40;;;1.70;;
16731;SDS011;8484;50.904;9.192;2022-10-30T15:02:20;2.60;;;1.60;;
16731;SDS011;8484;50.904;9.192;2022-10-30T15:05:18;5.93;;;1.80;;
16731;SDS011;8484;50.904;9.192;2022-10-30T15:08:35;3.30;;;1.30;;
16731;SDS011;8484;50.904;9.192;2022-10-30T15:11:33;4.03;;;1.63;;
16731;SDS011;8484;50.904;9.192;2022-10-30T15:14:31;2.27;;;1.33;;
16731;SDS011;8484;50.904;9.192;2022-10-30T15:17:21;4.37;;;1.40;;
16731;SDS011;8484;50.904;9.192;2022-10-30T15:20:17;6.23;;;1.80;;
16731;SDS011;8484;50.904;9.192;2022-10-30T15:23:06;2.53;;;1.40;;
16731;SDS011;8484;50.904;9.192;2022-10-30T15:25:55;5.67;;;1.67;;
16731;SDS011;8484;50.904;9.192;2022-10-30T15:28:43;2.20;;;1.40;;
16731;SDS011;8484;50.904;9.192;2022-10-30T15:31:33;2.37;;;1.27;;
16731;SDS011;8484;50.904;9.192;2022-10-30T15:34:20;7.33;;;1.50;;
16731;SDS011;8484;50.904;9.192;2022-10-30T15:37:09;5.20;;;1.40;;
16731;SDS011;8484;50.904;9.192;2022-10-30T15:40:10;4.67;;;1.43;;
16731;SDS011;8484;50.904;9.192;2022-10-30T15:43:00;3.00;;;1.43;;
16731;SDS011;8484;50.904;9.192;2022-10-30T15:45:49;6.63;;;1.63;;
16731;SDS011;8484;50.904;9.192;2022-10-30T15:48:38;6.67;;;1.57;;
16731;SDS011;8484;50.904;9.192;2022-10-30T15:51:25;2.33;;;1.37;;
16731;SDS011;8484;50.904;9.192;2022-10-30T15:54:12;2.23;;;1.40;;
16731;SDS011;8484;50.904;9.192;2022-10-30T15:57:02;5.07;;;1.73;;
16731;SDS011;8484;50.904;9.192;2022-10-30T15:59:48;5.70;;;1.80;;
16731;SDS011;8484;50.904;9.192;2022-10-30T16:02:38;3.47;;;1.50;;
16731;SDS011;8484;50.904;9.192;2022-10-30T16:05:23;2.43;;;1.53;;
16731;SDS011;8484;50.904;9.192;2022-10-30T16:08:10;3.63;;;1.57;;
16731;SDS011;8484;50.904;9.192;2022-10-30T16:10:59;3.00;;;1.30;;
16731;SDS011;8484;50.904;9.192;2022-10-30T16:13:44;7.53;;;1.63;;
16731;SDS011;8484;50.904;9.192;2022-10-30T16:16:31;3.33;;;1.80;;
16731;SDS011;8484;50.904;9.192;2022-10-30T16:19:20;3.43;;;2.07;;
16731;SDS011;8484;50.904;9.192;2022-10-30T16:22:12;5.37;;;2.00;;
16731;SDS011;8484;50.904;9.192;2022-10-30T16:25:00;6.67;;;1.70;;
16731;SDS011;8484;50.904;9.192;2022-10-30T16:27:51;2.67;;;1.53;;
16731;SDS011;8484;50.904;9.192;2022-10-30T16:30:36;5.30;;;1.70;;
16731;SDS011;8484;50.904;9.192;2022-10-30T16:33:22;5.00;;;1.90;;
16731;SDS011;8484;50.904;9.192;2022-10-30T16:36:12;2.87;;;1.60;;
16731;SDS011;8484;50.904;9.192;2022-10-30T16:39:03;8.70;;;1.80;;
16731;SDS011;8484;50.904;9.192;2022-10-30T16:41:49;6.07;;;1.47;;
16731;SDS011;8484;50.904;9.192;2022-10-30T16:44:35;4.83;;;1.73;;
16731;SDS011;8484;50.904;9.192;2022-10-30T16:47:22;5.40;;;1.40;;
16731;SDS011;8484;50.904;9.192;2022-10-30T16:50:10;5.13;;;1.83;;
16731;SDS011;8484;50.904;9.192;2022-10-30T16:53:05;2.60;;;1.50;;
16731;SDS011;8484;50.904;9.192;2022-10-30T16:55:55;2.93;;;1.60;;
16731;SDS011;8484;50.904;9.192;2022-10-30T16:58:42;4.30;;;1.83;;
16731;SDS011;8484;50.904;9.192;2022-10-30T17:01:28;5.00;;;1.83;;
16731;SDS011;8484;50.904;9.192;2022-10-30T17:04:13;5.80;;;2.20;;
16731;SDS011;8484;50.904;9.192;2022-10-30T17:07:13;4.03;;;1.73;;
16731;SDS011;8484;50.904;9.192;2022-10-30T17:10:16;4.73;;;1.73;;
16731;SDS011;8484;50.904;9.192;2022-10-30T17:13:29;2.63;;;1.57;;
16731;SDS011;8484;50.904;9.192;2022-10-30T17:16:20;6.90;;;3.23;;
16731;SDS011;8484;50.904;9.192;2022-10-30T17:23:21;5.00;;;3.07;;
16731;SDS011;8484;50.904;9.192;2022-10-30T17:33:21;17.10;;;9.50;;
16731;SDS011;8484;50.904;9.192;2022-10-30T17:36:16;6.20;;;3.30;;